Time;durP1;ratioP1;P1;durP2;ratioP2;P2;SDS_P1;SDS_P2;PMS_P1;PMS_P2;Temp;Humidity;BMP_temperature;BMP_pressure;BME280_temperature;BME280_humidity;BME280_pressure;Samples;Min_cycle;Max_cycle;Signal;HPM_P1;HPM_P2
2021/10/18 00:00:58;;;;;;;;;;;;;;;-144.99;92.17;52464.41;5012451;28;19982;-67
2021/10/18 00:03:24;;;;;;;;;;;;;;;-144.99;91.86;52464.41;5012396;28;20466;-67
2021/10/18 00:05:52;;;;;;;;;;;;;;;-144.99;92.00;52452.16;5011537;28;19986;-67
2021/10/18 00:08:18;;;;;;;;;;;;;;;-144.99;91.76;52456.25;5012541;28;19982;-67
2021/10/18 00:10:44;;;;;;;;;;;;;;;-144.99;91.81;52474.59;5014464;28;19980;-67
2021/10/18 00:13:14;;;;;;;;;;;;;;;-144.99;91.65;52480.72;5019216;28;19993;-67
2021/10/18 00:15:41;;;;;;;;;;;;;;;-144.99;91.25;52480.72;5016576;28;20423;-67
2021/10/18 00:18:07;;;;;;;;;;;;;;;-144.99;90.81;52460.31;5019606;28;19984;-67
2021/10/18 00:20:34;;;;;;;;;;;;;;;-144.99;90.90;52476.63;5011333;28;20390;-67
2021/10/18 00:23:02;;;;;;;;;;;;;;;-144.99;90.19;52456.25;5011673;28;20372;-67
2021/10/18 00:25:28;;;;;;;;;;;;;;;-144.99;89.94;52456.25;5012028;28;19982;-67
2021/10/18 00:27:54;;;;;;;;;;;;;;;-144.99;89.28;52497.00;5011688;28;19989;-67
2021/10/18 00:30:21;;;;;;;;;;;;;;;-144.99;88.77;52448.09;5011758;28;19985;-67
2021/10/18 00:32:47;;;;;;;;;;;;;;;-144.99;87.88;52444.03;5011430;28;19998;-67
2021/10/18 00:35:13;;;;;;;;;;;;;;;-144.99;87.86;52444.03;5011425;28;19993;-67
2021/10/18 00:37:40;;;;;;;;;;;;;;;-144.99;87.76;52468.47;5011513;28;19989;-67
2021/10/18 00:40:08;;;;;;;;;;;;;;;-144.99;87.63;52466.44;5011401;28;19979;-67
2021/10/18 00:42:35;;;;;;;;;;;;;;;-144.99;87.58;52444.03;5008999;28;20410;-67
2021/10/18 00:45:01;;;;;;;;;;;;;;;-144.99;87.16;52464.41;5016216;28;19990;-67
2021/10/18 00:47:28;;;;;;;;;;;;;;;-144.99;86.91;52486.81;5016013;28;19978;-66
2021/10/18 00:49:54;;;;;;;;;;;;;;;-144.99;86.84;52464.41;5017273;28;19988;-67
2021/10/18 00:52:21;;;;;;;;;;;;;;;-144.99;86.69;52472.56;5017744;28;20012;-67
2021/10/18 00:54:49;;;;;;;;;;;;;;;-144.99;86.63;52435.88;5017122;28;20060;-67
2021/10/18 00:57:17;;;;;;;;;;;;;;;-144.99;86.29;52462.34;5013939;28;19989;-67
2021/10/18 00:59:44;;;;;;;;;;;;;;;-144.99;86.11;52448.09;5011630;28;19986;-67
2021/10/18 01:02:10;;;;;;;;;;;;;;;-144.99;86.25;52431.78;5011120;28;20008;-67
2021/10/18 01:04:37;;;;;;;;;;;;;;;-144.99;86.07;52452.16;5011333;28;19997;-67
2021/10/18 01:07:04;;;;;;;;;;;;;;;-144.99;85.49;52476.63;5010977;28;19982;-67
2021/10/18 01:09:31;;;;;;;;;;;;;;;-144.99;85.61;52444.03;5011119;28;19982;-67
2021/10/18 01:11:57;;;;;;;;;;;;;;;-144.99;85.24;52454.22;5010977;28;19998;-67
2021/10/18 01:14:25;;;;;;;;;;;;;;;-144.99;85.20;52444.03;5007924;28;19986;-67
2021/10/18 01:16:51;;;;;;;;;;;;;;;-144.99;84.92;52492.94;5020846;28;19982;-67
2021/10/18 01:19:21;;;;;;;;;;;;;;;-144.99;84.92;52456.25;5011208;28;19937;-67
2021/10/18 01:21:50;;;;;;;;;;;;;;;-144.99;85.17;52466.44;5010636;28;20375;-67
2021/10/18 01:24:16;;;;;;;;;;;;;;;-144.99;85.08;52437.91;5010562;28;20354;-67
2021/10/18 01:26:42;;;;;;;;;;;;;;;-144.99;84.65;52480.72;5010508;28;20315;-67
2021/10/18 01:29:09;;;;;;;;;;;;;;;-144.99;84.81;52488.84;5011093;28;20393;-67
2021/10/18 01:31:35;;;;;;;;;;;;;;;-144.99;84.43;52484.78;5011108;28;20004;-67
2021/10/18 01:34:02;;;;;;;;;;;;;;;-144.99;84.61;52448.09;5011263;28;19982;-67
2021/10/18 01:36:28;;;;;;;;;;;;;;;-144.99;84.90;52441.97;5016920;28;19978;-67
2021/10/18 01:38:56;;;;;;;;;;;;;;;-144.99;84.66;52468.47;5010713;28;19985;-67
2021/10/18 01:41:22;;;;;;;;;;;;;;;-144.99;84.66;52435.88;5010750;28;19981;-67
2021/10/18 01:43:48;;;;;;;;;;;;;;;-144.99;84.75;52488.84;5001666;28;19998;-67
2021/10/18 01:46:15;;;;;;;;;;;;;;;-144.99;84.80;52466.44;5021092;28;19973;-67
2021/10/18 01:48:41;;;;;;;;;;;;;;;-144.99;84.91;52458.28;5021828;28;20008;-67
2021/10/18 01:51:08;;;;;;;;;;;;;;;-144.99;85.00;52474.59;5010073;28;19992;-67
2021/10/18 01:53:34;;;;;;;;;;;;;;;-144.99;85.01;52460.31;5010808;28;20001;-67
2021/10/18 01:56:02;;;;;;;;;;;;;;;-144.99;84.98;52429.75;5010181;28;19990;-67
2021/10/18 01:58:31;;;;;;;;;;;;;;;-144.99;84.82;52460.31;5010947;28;20220;-67
2021/10/18 02:00:57;;;;;;;;;;;;;;;-144.99;85.11;52490.91;5010474;28;19982;-67
2021/10/18 02:03:24;;;;;;;;;;;;;;;-144.99;85.55;52452.16;5014393;28;19998;-67
2021/10/18 02:05:50;;;;;;;;;;;;;;;-144.99;85.71;52431.78;5013999;28;20021;-67
2021/10/18 02:08:16;;;;;;;;;;;;;;;-144.99;85.63;52480.72;5014376;28;19982;-67
2021/10/18 02:10:43;;;;;;;;;;;;;;;-144.99;85.51;52464.41;5018077;28;20426;-67
2021/10/18 02:13:10;;;;;;;;;;;;;;;-144.99;85.49;52472.56;5030560;28;20501;-67
2021/10/18 02:15:37;;;;;;;;;;;;;;;-144.99;85.77;52488.84;5024657;28;19977;-68
2021/10/18 02:18:03;;;;;;;;;;;;;;;-144.99;85.63;52462.34;5017906;28;19985;-67
2021/10/18 02:20:30;;;;;;;;;;;;;;;-144.99;85.35;52470.50;5014129;28;19986;-67
2021/10/18 02:22:56;;;;;;;;;;;;;;;-144.99;85.08;52490.91;5013663;28;20024;-67
2021/10/18 02:25:23;;;;;;;;;;;;;;;-144.99;85.31;52415.47;5014082;28;20390;-67
2021/10/18 02:27:49;;;;;;;;;;;;;;;-144.99;85.32;52476.63;5013321;28;20020;-67
2021/10/18 02:30:17;;;;;;;;;;;;;;;-144.99;85.44;52472.56;5013980;28;20473;-67
2021/10/18 02:32:43;;;;;;;;;;;;;;;-144.99;85.70;52492.94;5013492;28;19998;-67
2021/10/18 02:35:11;;;;;;;;;;;;;;;-144.99;85.88;52441.97;5017953;28;20017;-67
2021/10/18 02:37:37;;;;;;;;;;;;;;;-144.99;85.89;52456.25;5013775;28;19993;-67
2021/10/18 02:40:03;;;;;;;;;;;;;;;-144.99;85.72;52488.84;5014072;28;19982;-67
2021/10/18 02:42:30;;;;;;;;;;;;;;;-144.99;85.84;52460.31;5013242;28;20362;-67
2021/10/18 02:44:56;;;;;;;;;;;;;;;-144.99;85.82;52488.84;5025136;28;20480;-66
2021/10/18 02:47:24;;;;;;;;;;;;;;;-144.99;85.95;52452.16;5019712;28;19978;-67
2021/10/18 02:49:50;;;;;;;;;;;;;;;-144.99;85.51;52488.84;5014075;28;19981;-66
2021/10/18 02:52:17;;;;;;;;;;;;;;;-144.99;85.73;52484.78;5013270;28;19997;-66
2021/10/18 02:54:43;;;;;;;;;;;;;;;-144.99;85.79;52488.84;5014257;28;19982;-66
2021/10/18 02:57:10;;;;;;;;;;;;;;;-144.99;85.65;52464.41;5013522;28;19997;-66
2021/10/18 02:59:36;;;;;;;;;;;;;;;-144.99;85.56;52444.03;5013752;28;19982;-66
2021/10/18 03:02:02;;;;;;;;;;;;;;;-144.99;85.72;52464.41;5013667;28;20002;-66
2021/10/18 03:04:30;;;;;;;;;;;;;;;-144.99;85.58;52450.13;5013532;28;19997;-67
2021/10/18 03:06:56;;;;;;;;;;;;;;;-144.99;85.68;52464.41;5013928;28;19982;-71
2021/10/18 03:09:23;;;;;;;;;;;;;;;-144.99;85.60;52503.13;5013051;28;19982;-66
2021/10/18 03:11:49;;;;;;;;;;;;;;;-144.99;85.40;52501.09;5015333;28;20001;-66
2021/10/18 03:14:15;;;;;;;;;;;;;;;-144.99;85.45;52456.25;5016421;28;19981;-66
2021/10/18 03:16:42;;;;;;;;;;;;;;;-144.99;85.20;52448.09;5028536;28;19977;-66
2021/10/18 03:19:08;;;;;;;;;;;;;;;-144.99;84.88;52492.94;5015125;28;19982;-66
2021/10/18 03:21:36;;;;;;;;;;;;;;;-144.99;84.94;52439.94;5012787;28;19993;-66
2021/10/18 03:24:02;;;;;;;;;;;;;;;-144.99;85.05;52464.41;5012875;28;20363;-66
2021/10/18 03:26:28;;;;;;;;;;;;;;;-144.99;84.96;52464.41;5019937;28;19982;-67
2021/10/18 03:28:55;;;;;;;;;;;;;;;-144.99;85.17;52468.47;5018925;28;19986;-66
2021/10/18 03:31:21;;;;;;;;;;;;;;;-144.99;85.39;52452.16;5019048;28;19982;-67
2021/10/18 03:33:49;;;;;;;;;;;;;;;-144.99;85.26;52509.25;5016451;28;19988;-67
2021/10/18 03:36:15;;;;;;;;;;;;;;;-144.99;85.10;52468.47;5012445;28;19988;-66
2021/10/18 03:38:43;;;;;;;;;;;;;;;-144.99;85.12;52439.94;5013000;28;19982;-67
2021/10/18 03:41:09;;;;;;;;;;;;;;;-144.99;85.10;52448.09;5012654;28;20076;-66
2021/10/18 03:43:36;;;;;;;;;;;;;;;-144.99;85.16;52452.16;5012761;28;20001;-66
2021/10/18 03:46:02;;;;;;;;;;;;;;;-144.99;84.89;52415.47;5013231;28;20004;-66
2021/10/18 03:48:29;;;;;;;;;;;;;;;-144.99;84.86;52488.84;5013156;28;19982;-66
2021/10/18 03:50:56;;;;;;;;;;;;;;;-144.99;84.83;52423.63;5012735;28;19989;-66
2021/10/18 03:53:22;;;;;;;;;;;;;;;-144.99;84.44;52488.84;5012200;28;20060;-66
2021/10/18 03:55:50;;;;;;;;;;;;;;;-144.99;84.28;52448.09;5012533;28;19956;-66
2021/10/18 03:58:16;;;;;;;;;;;;;;;-144.99;84.17;52452.16;5012516;28;19988;-67
2021/10/18 04:00:43;;;;;;;;;;;;;;;-144.99;84.10;52476.63;5015133;28;20001;-66
2021/10/18 04:03:09;;;;;;;;;;;;;;;-144.99;83.76;52472.56;5022302;28;20268;-66
2021/10/18 04:05:36;;;;;;;;;;;;;;;-144.99;83.51;52476.63;5022434;28;19997;-68
2021/10/18 04:08:02;;;;;;;;;;;;;;;-144.99;83.31;52456.25;5020799;28;19989;-67
2021/10/18 04:10:28;;;;;;;;;;;;;;;-144.99;83.35;52472.56;5022631;28;20208;-66
2021/10/18 04:12:56;;;;;;;;;;;;;;;-144.99;83.36;52452.16;5026795;28;19975;-66
2021/10/18 04:15:22;;;;;;;;;;;;;;;-144.99;83.18;52476.63;5025992;28;20231;-66
2021/10/18 04:17:49;;;;;;;;;;;;;;;-144.99;83.06;52513.31;5022945;28;19978;-66
2021/10/18 04:20:15;;;;;;;;;;;;;;;-144.99;83.07;52497.00;5019124;28;19982;-66
2021/10/18 04:22:45;;;;;;;;;;;;;;;-144.99;82.80;52480.72;5012018;28;19994;-66
2021/10/18 04:25:12;;;;;;;;;;;;;;;-144.99;82.78;52462.34;5011248;28;20462;-66
2021/10/18 04:27:38;;;;;;;;;;;;;;;-144.99;82.63;52515.34;5011938;28;19929;-67
2021/10/18 04:30:06;;;;;;;;;;;;;;;-144.99;82.44;52492.94;5012053;28;19989;-66
2021/10/18 04:32:33;;;;;;;;;;;;;;;-144.99;82.57;52480.72;5012401;28;19998;-67
2021/10/18 04:34:59;;;;;;;;;;;;;;;-144.99;82.57;52444.03;5015069;28;19996;-66
2021/10/18 04:37:25;;;;;;;;;;;;;;;-144.99;82.42;52472.56;5012019;28;19991;-66
2021/10/18 04:39:52;;;;;;;;;;;;;;;-144.99;82.80;52456.25;5011950;28;19989;-66
2021/10/18 04:42:18;;;;;;;;;;;;;;;-144.99;82.80;52478.66;5011537;28;20394;-67
2021/10/18 04:44:44;;;;;;;;;;;;;;;-144.99;83.07;52419.56;5019632;28;20378;-67
2021/10/18 04:47:12;;;;;;;;;;;;;;;-144.99;83.15;52480.72;5011805;28;19981;-66
2021/10/18 04:49:39;;;;;;;;;;;;;;;-144.99;83.20;52456.25;5011908;28;20454;-66
2021/10/18 04:52:05;;;;;;;;;;;;;;;-144.99;83.47;52441.97;5012037;28;19998;-66
2021/10/18 04:54:32;;;;;;;;;;;;;;;-144.99;83.20;52488.84;5011299;28;19988;-66
2021/10/18 04:56:58;;;;;;;;;;;;;;;-144.99;83.32;52480.72;5013635;28;20446;-67
2021/10/18 04:59:24;;;;;;;;;;;;;;;-144.99;82.87;52476.63;5026848;28;19986;-67
2021/10/18 05:01:51;;;;;;;;;;;;;;;-144.99;82.81;52454.22;5025319;28;19997;-66
2021/10/18 05:04:18;;;;;;;;;;;;;;;-144.99;82.81;52444.03;5025043;28;19990;-66
2021/10/18 05:06:45;;;;;;;;;;;;;;;-144.99;82.63;52462.34;5026718;28;20006;-68
2021/10/18 05:09:11;;;;;;;;;;;;;;;-144.99;82.60;52484.78;5024991;28;20229;-66
2021/10/18 05:11:37;;;;;;;;;;;;;;;-144.99;82.24;52476.63;5028761;28;19998;-66
2021/10/18 05:14:04;;;;;;;;;;;;;;;-144.99;81.98;52460.31;5034864;28;19978;-67
2021/10/18 05:16:30;;;;;;;;;;;;;;;-144.99;82.55;52462.34;5031654;28;19993;-66
2021/10/18 05:18:56;;;;;;;;;;;;;;;-144.99;82.27;52439.94;5022744;28;20063;-66
2021/10/18 05:21:24;;;;;;;;;;;;;;;-144.99;82.24;52466.44;5023470;28;19982;-66
2021/10/18 05:23:50;;;;;;;;;;;;;;;-144.99;82.41;52464.41;5022435;28;19993;-66
2021/10/18 05:26:17;;;;;;;;;;;;;;;-144.99;82.39;52470.50;5018550;28;20002;-66
2021/10/18 05:28:43;;;;;;;;;;;;;;;-144.99;82.20;52464.41;5022436;28;19989;-66
2021/10/18 05:31:10;;;;;;;;;;;;;;;-144.99;82.00;52452.16;5020573;28;20076;-66
2021/10/18 05:33:37;;;;;;;;;;;;;;;-144.99;82.06;52448.09;5011424;28;20068;-66
2021/10/18 05:36:03;;;;;;;;;;;;;;;-144.99;81.61;52452.16;5016387;28;19982;-66
2021/10/18 05:38:31;;;;;;;;;;;;;;;-144.99;81.73;52456.25;5015819;28;19993;-66
2021/10/18 05:40:57;;;;;;;;;;;;;;;-144.99;81.32;52452.16;5014540;28;19989;-66
2021/10/18 05:43:23;;;;;;;;;;;;;;;-144.99;81.18;52456.25;5019471;28;20004;-66
2021/10/18 05:45:50;;;;;;;;;;;;;;;-144.99;81.38;52472.56;5024130;28;19994;-66
2021/10/18 05:48:16;;;;;;;;;;;;;;;-144.99;81.44;52446.06;5015129;28;19988;-66
2021/10/18 05:50:44;;;;;;;;;;;;;;;-144.99;81.59;52435.88;5014607;28;19989;-66
2021/10/18 05:53:11;;;;;;;;;;;;;;;-144.99;81.69;52433.81;5014428;28;20670;-66
2021/10/18 05:55:38;;;;;;;;;;;;;;;-144.99;81.70;52476.63;5015285;28;19985;-66
2021/10/18 05:58:06;;;;;;;;;;;;;;;-144.99;81.76;52441.97;5014363;28;19992;-66
2021/10/18 06:00:33;;;;;;;;;;;;;;;-144.99;81.55;52456.25;5014867;28;19989;-66
2021/10/18 06:03:00;;;;;;;;;;;;;;;-144.99;81.59;52460.31;5014600;28;20013;-66
2021/10/18 06:05:27;;;;;;;;;;;;;;;-144.99;81.88;52472.56;5014701;28;20005;-66
2021/10/18 06:07:54;;;;;;;;;;;;;;;-144.99;81.86;52452.16;5014435;28;19982;-66
2021/10/18 06:10:20;;;;;;;;;;;;;;;-144.99;81.73;52470.50;5015547;28;20005;-66
2021/10/18 06:12:48;;;;;;;;;;;;;;;-144.99;81.59;52464.41;5016977;28;19997;-66
2021/10/18 06:15:14;;;;;;;;;;;;;;;-144.99;81.49;52480.72;5027292;28;19980;-66
2021/10/18 06:17:43;;;;;;;;;;;;;;;-144.99;81.37;52497.00;5021899;28;19982;-67
2021/10/18 06:20:10;;;;;;;;;;;;;;;-144.99;81.43;52466.44;5014468;28;19978;-67
2021/10/18 06:22:37;;;;;;;;;;;;;;;-144.99;81.49;52435.88;5013644;28;20429;-67
2021/10/18 06:25:03;;;;;;;;;;;;;;;-144.99;81.35;52456.25;5016524;28;20131;-67
2021/10/18 06:27:30;;;;;;;;;;;;;;;-144.99;81.67;52452.16;5002788;28;19986;-70
2021/10/18 06:29:57;;;;;;;;;;;;;;;-144.99;81.67;52464.41;5014769;28;20096;-67
2021/10/18 06:32:24;;;;;;;;;;;;;;;-144.99;81.79;52476.63;5014387;28;20501;-67
2021/10/18 06:34:50;;;;;;;;;;;;;;;-144.99;81.80;52488.84;5016479;28;20003;-67
2021/10/18 06:37:17;;;;;;;;;;;;;;;-144.99;81.74;52403.25;5014019;28;19989;-67
2021/10/18 06:39:43;;;;;;;;;;;;;;;-144.99;81.75;52474.59;5013954;28;19989;-69
2021/10/18 06:42:09;;;;;;;;;;;;;;;-144.99;81.82;52439.94;5014137;28;20374;-67
2021/10/18 06:44:36;;;;;;;;;;;;;;;-144.99;81.73;52484.78;5025533;28;19982;-67
2021/10/18 06:47:03;;;;;;;;;;;;;;;-144.99;81.81;52452.16;5020846;28;19993;-67
2021/10/18 06:49:30;;;;;;;;;;;;;;;-144.99;81.77;52468.47;5014225;28;19985;-67
2021/10/18 06:51:57;;;;;;;;;;;;;;;-144.99;81.85;52464.41;5013630;28;20013;-67
2021/10/18 06:54:24;;;;;;;;;;;;;;;-144.99;81.68;52476.63;5013842;28;20382;-67
2021/10/18 06:56:52;;;;;;;;;;;;;;;-144.99;81.79;52452.16;5013244;28;20443;-67
2021/10/18 06:59:18;;;;;;;;;;;;;;;-144.99;81.44;52444.03;5013852;28;20025;-67
2021/10/18 07:01:45;;;;;;;;;;;;;;;-144.99;81.13;52425.66;5013451;28;19998;-67
2021/10/18 07:04:16;;;;;;;;;;;;;;;-144.99;80.78;52444.03;5013736;28;19988;-67
2021/10/18 07:06:42;;;;;;;;;;;;;;;-144.99;80.41;52468.47;5014324;28;20181;-67
2021/10/18 07:09:09;;;;;;;;;;;;;;;-144.99;80.23;52425.66;5013813;28;20373;-67
2021/10/18 07:11:35;;;;;;;;;;;;;;;-144.99;79.37;52452.16;5015550;28;20016;-67
2021/10/18 07:14:01;;;;;;;;;;;;;;;-144.99;78.23;52382.88;5024071;28;20122;-68
2021/10/18 07:16:28;;;;;;;;;;;;;;;-144.99;77.85;52423.63;5012899;28;19978;-68
2021/10/18 07:18:54;;;;;;;;;;;;;;;-144.99;77.83;52464.41;5016395;28;19977;-68
2021/10/18 07:21:22;;;;;;;;;;;;;;;-144.99;77.67;52456.25;5013062;28;20075;-68
2021/10/18 07:23:51;;;;;;;;;;;;;;;-144.99;77.67;52407.31;5013309;28;20218;-68
2021/10/18 07:26:18;;;;;;;;;;;;;;;-144.99;77.42;52484.78;5012462;28;20544;-68
2021/10/18 07:28:44;;;;;;;;;;;;;;;-144.99;77.28;52411.41;5012692;28;20080;-66
2021/10/18 07:31:10;;;;;;;;;;;;;;;-144.99;77.20;52423.63;5013195;28;19982;-66
2021/10/18 07:33:37;;;;;;;;;;;;;;;-144.99;77.44;52484.78;5012879;28;20004;-66
2021/10/18 07:36:08;;;;;;;;;;;;;;;-144.99;77.49;52470.50;5012439;28;20459;-66
2021/10/18 07:38:36;;;;;;;;;;;;;;;-144.99;77.90;52444.03;5013274;28;19982;-66
2021/10/18 07:41:02;;;;;;;;;;;;;;;-144.99;77.71;52480.72;5012436;28;19985;-66
2021/10/18 07:43:28;;;;;;;;;;;;;;;-144.99;77.58;52431.78;5016974;28;19990;-66
2021/10/18 07:45:55;;;;;;;;;;;;;;;-144.99;77.65;52446.06;5023019;28;19994;-67
2021/10/18 07:48:21;;;;;;;;;;;;;;;-144.99;77.39;52427.72;5016100;28;19982;-66
2021/10/18 07:50:47;;;;;;;;;;;;;;;-144.99;77.41;52472.56;5012162;28;19989;-66
2021/10/18 07:53:14;;;;;;;;;;;;;;;-144.99;77.39;52411.41;5012142;28;19998;-66
2021/10/18 07:55:41;;;;;;;;;;;;;;;-144.99;77.00;52456.25;5012846;28;19986;-67
2021/10/18 07:58:08;;;;;;;;;;;;;;;-144.99;76.91;52460.31;5012246;28;19985;-66
2021/10/18 08:00:34;;;;;;;;;;;;;;;-144.99;76.75;52431.78;5011639;28;19981;-66
2021/10/18 08:03:01;;;;;;;;;;;;;;;-144.99;76.59;52435.88;5012006;28;20033;-66
2021/10/18 08:05:29;;;;;;;;;;;;;;;-144.99;76.43;52415.47;5012592;28;20366;-66
2021/10/18 08:07:56;;;;;;;;;;;;;;;-144.99;76.37;52427.72;5011662;28;20434;-66
2021/10/18 08:10:26;;;;;;;;;;;;;;;-144.99;75.79;52446.06;5012636;28;19982;-66
2021/10/18 08:12:55;;;;;;;;;;;;;;;-144.99;76.13;52431.78;5014420;28;20049;-66
2021/10/18 08:15:21;;;;;;;;;;;;;;;-144.99;76.14;52433.81;5013202;28;19982;-66
2021/10/18 08:17:48;;;;;;;;;;;;;;;-144.99;75.79;52448.09;5019758;28;20418;-67
2021/10/18 08:20:14;;;;;;;;;;;;;;;-144.99;76.03;52386.94;5012058;28;20410;-67
2021/10/18 08:22:41;;;;;;;;;;;;;;;-144.99;75.86;52427.72;5011347;28;19995;-67
2021/10/18 08:25:08;;;;;;;;;;;;;;;-144.99;75.46;52439.94;5012176;28;20085;-66
2021/10/18 08:27:35;;;;;;;;;;;;;;;-144.99;75.43;52450.13;5011322;28;20005;-66
2021/10/18 08:30:03;;;;;;;;;;;;;;;-144.99;76.07;52454.22;5012013;28;19986;-66
2021/10/18 08:32:29;;;;;;;;;;;;;;;-144.99;76.15;52435.88;5011664;28;19998;-67
2021/10/18 08:34:55;;;;;;;;;;;;;;;-144.99;76.13;52474.59;5011272;28;19981;-66
2021/10/18 08:37:22;;;;;;;;;;;;;;;-144.99;76.14;52452.16;5011530;28;20442;-67
2021/10/18 08:40:06;;;;;;;;;;;;;;;-144.99;76.17;52501.09;5011912;28;19981;-66
2021/10/18 08:42:42;;;;;;;;;;;;;;;-144.99;76.01;52423.63;5009772;28;20025;-67
2021/10/18 08:45:10;;;;;;;;;;;;;;;-144.99;76.84;52427.72;5011216;28;20069;-66
2021/10/18 08:47:37;;;;;;;;;;;;;;;-144.99;76.11;52427.72;5017639;28;19998;-66
2021/10/18 08:50:06;;;;;;;;;;;;;;;-144.99;76.15;52419.56;5012159;28;19982;-67
2021/10/18 08:52:33;;;;;;;;;;;;;;;-144.99;76.21;52464.41;5011748;28;20004;-66
2021/10/18 08:55:00;;;;;;;;;;;;;;;-144.99;76.24;52407.31;5011142;28;20366;-67
2021/10/18 08:57:26;;;;;;;;;;;;;;;-144.99;75.99;52452.16;5010893;28;20009;-67
2021/10/18 08:59:53;;;;;;;;;;;;;;;-144.99;76.17;52435.88;5011464;28;20358;-66
2021/10/18 09:02:34;;;;;;;;;;;;;;;-144.99;75.78;52382.88;5011696;28;20004;-67
2021/10/18 09:05:00;;;;;;;;;;;;;;;-144.99;76.11;52476.63;4991516;28;19982;-66
2021/10/18 09:07:26;;;;;;;;;;;;;;;-144.99;75.53;52415.47;5004950;28;20002;-66
2021/10/18 09:09:54;;;;;;;;;;;;;;;-144.99;75.83;52448.09;5010987;28;19989;-66
2021/10/18 09:12:24;;;;;;;;;;;;;;;-144.99;76.00;52450.13;5011315;28;20002;-66
2021/10/18 09:14:51;;;;;;;;;;;;;;;-144.99;75.62;52435.88;5014386;28;19978;-67
2021/10/18 09:17:32;;;;;;;;;;;;;;;-144.99;75.65;52425.66;5024703;28;19985;-67
2021/10/18 09:20:20;;;;;;;;;;;;;;;-144.99;75.46;52423.63;5011089;28;20068;-66
2021/10/18 09:22:49;;;;;;;;;;;;;;;-144.99;74.87;52431.78;4998583;28;20552;-67
2021/10/18 09:25:30;;;;;;;;;;;;;;;-144.99;74.52;52419.56;5011304;28;19982;-67
2021/10/18 09:28:07;;;;;;;;;;;;;;;-144.99;74.39;52431.78;5010551;28;19997;-66
2021/10/18 09:30:37;;;;;;;;;;;;;;;-144.99;74.16;52431.78;5011585;28;20427;-66
2021/10/18 09:33:13;;;;;;;;;;;;;;;-144.99;73.17;52415.47;5012449;28;20005;-67
2021/10/18 09:35:40;;;;;;;;;;;;;;;-144.99;73.04;52417.53;5005866;28;19985;-66
2021/10/18 09:38:08;;;;;;;;;;;;;;;-144.99;73.12;52407.31;5011676;28;19986;-66
2021/10/18 09:40:36;;;;;;;;;;;;;;;-144.99;72.22;52419.56;5013316;28;19977;-67
2021/10/18 09:43:06;;;;;;;;;;;;;;;-144.99;72.31;52425.66;5014986;28;20044;-66
2021/10/18 09:45:35;;;;;;;;;;;;;;;-144.99;71.45;52433.81;5012739;28;19998;-66
2021/10/18 10:51:50;;;;;;;;;;;;;;;-144.99;66.73;52386.94;5012994;28;20370;-67
2021/10/18 10:54:32;;;;;;;;;;;;;;;-144.99;66.82;52415.47;5013001;28;20447;-67
2021/10/18 10:57:03;;;;;;;;;;;;;;;-144.99;66.71;52382.88;5012914;28;19988;-67
2021/10/18 10:59:31;;;;;;;;;;;;;;;-144.99;66.32;52403.25;5012504;28;20080;-67
2021/10/18 11:02:01;;;;;;;;;;;;;;;-144.99;65.76;52378.78;5012811;28;20001;-67
2021/10/18 11:04:47;;;;;;;;;;;;;;;-144.99;66.19;52374.72;5012564;28;19986;-67
2021/10/18 11:07:15;;;;;;;;;;;;;;;-144.99;66.10;52415.47;5012447;28;20339;-67
2021/10/18 11:09:43;;;;;;;;;;;;;;;-144.99;66.00;52415.47;5012579;28;19989;-67
2021/10/18 11:12:19;;;;;;;;;;;;;;;-144.99;66.65;52382.88;5015544;28;19994;-67
2021/10/18 11:14:51;;;;;;;;;;;;;;;-144.99;66.63;52395.09;5020822;28;19984;-67
2021/10/18 11:17:17;;;;;;;;;;;;;;;-144.99;66.61;52386.94;5025827;28;19985;-67
2021/10/18 11:19:51;;;;;;;;;;;;;;;-144.99;66.45;52362.50;5012689;28;19978;-67
2021/10/18 11:22:24;;;;;;;;;;;;;;;-144.99;65.88;52435.88;5014840;28;19983;-67
2021/10/18 11:24:50;;;;;;;;;;;;;;;-144.99;66.64;52395.09;5012617;28;19989;-67
2021/10/18 11:27:24;;;;;;;;;;;;;;;-144.99;66.98;52419.56;5012119;28;20004;-67
2021/10/18 11:29:55;;;;;;;;;;;;;;;-144.99;67.30;52407.31;5012476;28;19986;-67
2021/10/18 11:32:22;;;;;;;;;;;;;;;-144.99;67.14;52427.72;5012227;28;19997;-67
2021/10/18 11:34:48;;;;;;;;;;;;;;;-144.99;66.67;52433.81;5034774;23;19997;-79
2021/10/18 11:37:14;;;;;;;;;;;;;;;-144.99;67.41;52370.63;5043049;28;19977;-75
2021/10/18 11:39:41;;;;;;;;;;;;;;;-144.99;66.98;52407.31;5044199;28;19981;-79
2021/10/18 11:42:09;;;;;;;;;;;;;;;-144.99;67.09;52403.25;5051758;28;20169;-76
2021/10/18 11:44:44;;;;;;;;;;;;;;;-144.99;67.27;52415.47;5051631;28;19993;-78
2021/10/18 11:47:29;;;;;;;;;;;;;;;-144.99;67.48;52391.03;5024515;28;19993;-77
2021/10/18 11:50:09;;;;;;;;;;;;;;;-144.99;67.88;52407.31;5014601;28;19982;-76
2021/10/18 11:52:39;;;;;;;;;;;;;;;-144.99;66.86;52427.72;5011491;28;20164;-78
2021/10/18 11:55:07;;;;;;;;;;;;;;;-144.99;66.88;52415.47;5016434;28;20002;-76
2021/10/18 11:57:34;;;;;;;;;;;;;;;-144.99;66.80;52380.84;5018117;28;20459;-78
2021/10/18 12:00:01;;;;;;;;;;;;;;;-144.99;66.96;52433.81;5011270;28;20382;-76
2021/10/18 12:02:28;;;;;;;;;;;;;;;-144.99;66.65;52342.09;5015071;28;19982;-81
2021/10/18 12:04:57;;;;;;;;;;;;;;;-144.99;67.23;52427.72;5011140;28;19986;-80
2021/10/18 12:07:43;;;;;;;;;;;;;;;-144.99;67.16;52391.03;5024700;28;19997;-79
2021/10/18 12:10:13;;;;;;;;;;;;;;;-144.99;67.51;52415.47;5011089;28;19985;-79
2021/10/18 12:12:39;;;;;;;;;;;;;;;-144.99;67.87;52421.59;5013598;28;20471;-78
2021/10/18 12:15:07;;;;;;;;;;;;;;;-144.99;67.57;52391.03;5036193;28;19989;-78
2021/10/18 12:17:35;;;;;;;;;;;;;;;-144.99;67.66;52415.47;5037878;28;20001;-79
2021/10/18 12:20:01;;;;;;;;;;;;;;;-144.99;67.73;52384.91;5019242;28;20028;-79
2021/10/18 12:22:28;;;;;;;;;;;;;;;-144.99;67.80;52368.59;5030656;28;20032;-79
2021/10/18 12:25:00;;;;;;;;;;;;;;;-144.99;67.43;52366.56;5018364;28;20500;-79
2021/10/18 12:27:26;;;;;;;;;;;;;;;-144.99;67.22;52395.09;5011188;28;20527;-79
2021/10/18 12:29:52;;;;;;;;;;;;;;;-144.99;67.64;52395.09;5011764;28;19993;-79
2021/10/18 12:32:20;;;;;;;;;;;;;;;-144.99;66.51;52407.31;5010539;28;19985;-79
2021/10/18 12:34:46;;;;;;;;;;;;;;;-144.99;66.24;52393.06;5015837;28;20023;-80
2021/10/18 12:37:13;;;;;;;;;;;;;;;-144.99;65.95;52362.50;5010609;28;20444;-79
2021/10/18 12:39:42;;;;;;;;;;;;;;;-144.99;65.92;52366.56;5010167;28;20004;-79
2021/10/18 12:42:09;;;;;;;;;;;;;;;-144.99;65.16;52366.56;5017653;28;20008;-78
2021/10/18 12:44:36;;;;;;;;;;;;;;;-144.99;65.10;52350.25;5036730;28;20016;-79
2021/10/18 12:47:03;;;;;;;;;;;;;;;-144.99;65.02;52374.72;5021687;28;19993;-78
2021/10/18 12:49:32;;;;;;;;;;;;;;;-144.99;65.12;52346.19;5010057;28;19982;-79
2021/10/18 12:52:02;;;;;;;;;;;;;;;-144.99;64.40;52297.25;5009670;28;20510;-79
2021/10/18 12:54:29;;;;;;;;;;;;;;;-144.99;62.55;52285.03;5009352;28;20001;-78
2021/10/18 12:57:03;;;;;;;;;;;;;;;-144.99;61.52;52266.69;5010958;28;20460;-78
2021/10/18 12:59:31;;;;;;;;;;;;;;;-144.99;59.54;52289.13;5028475;28;19982;-79
2021/10/18 13:02:19;;;;;;;;;;;;;;;-144.99;58.87;52336.00;5028846;28;19960;-79
2021/10/18 13:05:13;;;;;;;;;;;;;;;-144.99;59.76;52342.09;5031298;28;20005;-79
2021/10/18 13:07:42;;;;;;;;;;;;;;;-144.99;60.50;52342.09;4983279;28;20483;-81
2021/10/18 13:10:09;;;;;;;;;;;;;;;-144.99;61.84;52358.41;5032778;28;20008;-79
2021/10/18 13:12:36;;;;;;;;;;;;;;;-144.99;62.30;52362.50;5027471;28;19982;-79
2021/10/18 13:15:02;;;;;;;;;;;;;;;-144.99;62.85;52331.91;5028386;28;19989;-79
2021/10/18 13:17:29;;;;;;;;;;;;;;;-144.99;63.39;52342.09;5022326;28;19982;-78
2021/10/18 13:19:55;;;;;;;;;;;;;;;-144.99;63.37;52362.50;5017483;28;20354;-79
2021/10/18 13:22:22;;;;;;;;;;;;;;;-144.99;63.54;52386.94;5012363;28;19993;-80
2021/10/18 13:24:50;;;;;;;;;;;;;;;-144.99;63.72;52366.56;5010820;28;20001;-80
2021/10/18 13:27:17;;;;;;;;;;;;;;;-144.99;63.34;52395.09;5009953;28;20020;-78
2021/10/18 13:29:43;;;;;;;;;;;;;;;-144.99;64.14;52333.94;5011020;28;20132;-77
2021/10/18 13:32:11;;;;;;;;;;;;;;;-144.99;64.42;52342.09;5010094;28;20625;-77
2021/10/18 13:34:40;;;;;;;;;;;;;;;-144.99;65.12;52382.88;5013231;28;20318;-78